createdAt,value
2023-03-10T00:01:47.513Z,-0.37
2023-03-10T00:04:19.180Z,-0.34
2023-03-10T00:07:10.199Z,-0.30
2023-03-10T00:10:17.223Z,-0.27
2023-03-10T00:12:53.633Z,-0.24
2023-03-10T00:15:26.748Z,-0.23
2023-03-10T00:18:01.221Z,-0.21
2023-03-10T00:20:32.273Z,-0.21
2023-03-10T00:23:04.485Z,-0.20
2023-03-10T00:25:36.522Z,-0.22
2023-03-10T00:28:07.208Z,-0.22
2023-03-10T00:30:37.425Z,-0.22
2023-03-10T00:33:09.974Z,-0.23
2023-03-10T00:36:47.814Z,-0.24
2023-03-10T00:52:34.121Z,-0.45
2023-03-10T00:55:26.609Z,-0.50
2023-03-10T00:57:59.173Z,-0.55
2023-03-10T01:00:51.827Z,-0.59
2023-03-10T01:03:43.952Z,-0.61
2023-03-10T01:06:23.103Z,-0.62
2023-03-10T01:09:15.070Z,-0.65
2023-03-10T01:11:48.958Z,-0.72
2023-03-10T01:14:40.131Z,-0.76
2023-03-10T01:17:15.584Z,-0.81
2023-03-10T01:19:45.035Z,-0.83
2023-03-10T01:22:15.305Z,-0.83
2023-03-10T01:24:45.842Z,-0.83
2023-03-10T01:27:18.233Z,-0.85
2023-03-10T01:29:51.601Z,-0.92
2023-03-10T01:33:06.520Z,-0.97
2023-03-10T01:40:27.772Z,-1.09
2023-03-10T01:43:26.121Z,-1.12
2023-03-10T01:46:38.704Z,-1.16
2023-03-10T01:49:47.079Z,-1.19
2023-03-10T01:53:12.877Z,-1.19
2023-03-10T01:55:52.829Z,-1.22
2023-03-10T01:58:49.835Z,-1.24
2023-03-10T02:02:35.905Z,-1.26
2023-03-10T02:05:58.049Z,-1.30
2023-03-10T02:08:34.967Z,-1.31
2023-03-10T02:11:11.672Z,-1.29
2023-03-10T02:19:55.857Z,-1.35
2023-03-10T02:23:05.708Z,-1.36
2023-03-10T02:26:40.841Z,-1.37
2023-03-10T02:30:28.807Z,-1.33
2023-03-10T02:33:06.131Z,-1.32
2023-03-10T02:36:35.616Z,-1.31
2023-03-10T02:39:47.438Z,-1.28
2023-03-10T02:58:50.141Z,-1.35
2023-03-10T03:05:06.462Z,-1.39
2023-03-10T03:19:33.170Z,-1.45
2023-03-10T03:23:13.682Z,-1.47
2023-03-10T03:29:57.195Z,-1.48
2023-03-10T03:32:31.223Z,-1.46
2023-03-10T03:35:22.133Z,-1.45
2023-03-10T03:38:00.103Z,-1.47
2023-03-10T03:40:53.941Z,-1.49
2023-03-10T03:43:44.665Z,-1.49
2023-03-10T03:46:21.054Z,-1.49
2023-03-10T03:49:02.669Z,-1.47
2023-03-10T03:52:38.456Z,-1.45
2023-03-10T03:56:45.434Z,-1.41
2023-03-10T04:09:43.046Z,-1.45
2023-03-10T04:16:04.888Z,-1.51
2023-03-10T04:19:36.048Z,-1.53
2023-03-10T04:26:52.713Z,-1.55
2023-03-10T04:29:25.240Z,-1.52
2023-03-10T04:32:05.336Z,-1.51
2023-03-10T04:34:38.642Z,-1.52
2023-03-10T04:37:10.815Z,-1.50
2023-03-10T04:39:41.167Z,-1.49
2023-03-10T04:42:14.599Z,-1.49
2023-03-10T04:44:47.447Z,-1.47
2023-03-10T04:47:18.205Z,-1.47
2023-03-10T04:49:50.897Z,-1.45
2023-03-10T04:52:50.346Z,-1.43
2023-03-10T04:55:22.173Z,-1.41
2023-03-10T04:57:54.665Z,-1.39
2023-03-10T05:00:29.756Z,-1.37
2023-03-10T05:06:57.848Z,-1.34
2023-03-10T05:13:43.347Z,-1.37
2023-03-10T05:16:34.296Z,-1.38
2023-03-10T05:19:08.649Z,-1.38
2023-03-10T05:21:40.230Z,-1.36
2023-03-10T05:24:12.866Z,-1.33
2023-03-10T05:26:42.800Z,-1.32
2023-03-10T05:29:13.084Z,-1.29
2023-03-10T05:31:48.802Z,-1.28
2023-03-10T05:34:24.105Z,-1.26
2023-03-10T05:36:54.923Z,-1.25
2023-03-10T05:39:26.359Z,-1.23
2023-03-10T05:41:58.681Z,-1.22
2023-03-10T05:44:36.109Z,-1.20
2023-03-10T05:47:30.041Z,-1.18
2023-03-10T05:54:00.960Z,-1.16
2023-03-10T05:56:54.908Z,-1.14
2023-03-10T05:59:57.940Z,-1.10
2023-03-10T06:02:32.796Z,-1.06
2023-03-10T06:05:05.814Z,-1.04
2023-03-10T06:07:38.304Z,-1.03
2023-03-10T06:10:08.582Z,-1.00
2023-03-10T06:12:38.656Z,-0.95
2023-03-10T06:15:09.951Z,-0.94
2023-03-10T06:17:42.466Z,-0.93
2023-03-10T06:20:15.901Z,-0.90
2023-03-10T06:22:49.676Z,-0.91
2023-03-10T06:25:22.334Z,-0.89
2023-03-10T06:27:56.733Z,-0.87
2023-03-10T06:30:26.692Z,-0.81
2023-03-10T06:32:59.528Z,-0.78
2023-03-10T06:35:33.967Z,-0.74
2023-03-10T06:38:03.165Z,-0.71
2023-03-10T06:40:34.726Z,-0.67
2023-03-10T06:43:06.748Z,-0.62
2023-03-10T06:45:36.426Z,-0.60
2023-03-10T06:48:07.915Z,-0.60
2023-03-10T06:50:50.289Z,-0.58
2023-03-10T06:53:24.007Z,-0.56
2023-03-10T06:56:00.859Z,-0.56
2023-03-10T06:58:31.571Z,-0.55
2023-03-10T07:01:01.168Z,-0.51
2023-03-10T07:03:31.353Z,-0.46
2023-03-10T07:06:01.896Z,-0.43
2023-03-10T07:08:34.234Z,-0.38
2023-03-10T07:11:03.648Z,-0.34
2023-03-10T07:13:32.751Z,-0.35
2023-03-10T07:16:02.254Z,-0.34
2023-03-10T07:18:31.829Z,-0.32
2023-03-10T07:21:01.911Z,-0.28
2023-03-10T07:23:31.589Z,-0.23
2023-03-10T07:26:09.452Z,-0.20
2023-03-10T07:29:00.933Z,-0.16
2023-03-10T07:31:46.328Z,-0.12
2023-03-10T07:34:18.374Z,-0.12
2023-03-10T07:36:49.437Z,-0.13
2023-03-10T07:39:21.141Z,-0.13
2023-03-10T07:41:52.589Z,-0.10
2023-03-10T07:44:24.901Z,-0.07
2023-03-10T07:46:54.751Z,0.00
2023-03-10T07:49:25.993Z,0.05
2023-03-10T07:53:09.597Z,0.07
2023-03-10T07:55:40.318Z,0.09
2023-03-10T07:58:13.283Z,0.13
2023-03-10T08:00:45.217Z,0.13
2023-03-10T08:03:15.473Z,0.15
2023-03-10T08:05:48.591Z,0.16
2023-03-10T08:08:19.221Z,0.17
2023-03-10T08:10:52.468Z,0.18
2023-03-10T08:13:25.639Z,0.25
2023-03-10T08:15:56.181Z,0.27
2023-03-10T08:18:28.663Z,0.31
2023-03-10T08:21:03.740Z,0.36
2023-03-10T08:23:58.618Z,0.37
2023-03-10T08:26:30.009Z,0.45
2023-03-10T08:29:00.926Z,0.47
2023-03-10T08:31:30.827Z,0.48
2023-03-10T08:34:02.493Z,0.50
2023-03-10T08:36:33.796Z,0.52
2023-03-10T08:39:06.256Z,0.56
2023-03-10T08:41:42.961Z,0.62
2023-03-10T08:44:16.248Z,0.72
2023-03-10T08:46:48.862Z,0.82
2023-03-10T08:49:23.279Z,0.89
2023-03-10T08:51:56.350Z,0.97
2023-03-10T08:54:27.818Z,0.97
2023-03-10T08:56:57.860Z,1.01
2023-03-10T08:59:29.138Z,1.03
2023-03-10T09:01:59.369Z,1.01
2023-03-10T09:04:31.376Z,1.03
2023-03-10T09:07:02.307Z,1.03
2023-03-10T09:09:34.413Z,1.06
2023-03-10T09:12:07.436Z,1.09
2023-03-10T09:14:38.613Z,1.10
2023-03-10T09:17:08.626Z,1.08
2023-03-10T09:19:39.508Z,1.12
2023-03-10T09:22:11.092Z,1.15
2023-03-10T09:24:40.566Z,1.13
2023-03-10T09:27:12.188Z,1.12
2023-03-10T09:29:43.619Z,1.10
2023-03-10T09:32:15.471Z,1.08
2023-03-10T09:34:51.387Z,1.07
2023-03-10T09:37:23.309Z,1.05
2023-03-10T09:39:54.052Z,1.06
2023-03-10T09:42:38.384Z,1.09
2023-03-10T09:45:25.356Z,1.15
2023-03-10T09:48:10.542Z,1.20
2023-03-10T09:50:52.724Z,1.23
2023-03-10T09:53:54.063Z,1.26
2023-03-10T09:56:32.181Z,1.27
2023-03-10T09:59:13.557Z,1.26
2023-03-10T10:01:47.390Z,1.25
2023-03-10T10:04:25.552Z,1.32
2023-03-10T10:06:58.048Z,1.37
2023-03-10T10:09:45.433Z,1.46
2023-03-10T10:12:21.391Z,1.52
2023-03-10T10:14:57.686Z,1.59
2023-03-10T10:17:32.485Z,1.63
2023-03-10T10:20:15.886Z,1.66
2023-03-10T10:22:48.234Z,1.66
2023-03-10T10:25:22.085Z,1.63
2023-03-10T10:27:55.385Z,1.67
2023-03-10T10:30:39.230Z,1.74
2023-03-10T10:33:11.716Z,1.80
2023-03-10T10:35:44.233Z,1.79
2023-03-10T10:38:16.961Z,1.77
2023-03-10T10:40:59.223Z,1.74
2023-03-10T10:43:30.197Z,1.69
2023-03-10T10:46:07.552Z,1.65
2023-03-10T10:48:43.458Z,1.64
2023-03-10T10:51:39.615Z,1.63
2023-03-10T10:54:28.845Z,1.65
2023-03-10T10:57:03.717Z,1.68
2023-03-10T10:59:34.820Z,1.70
2023-03-10T11:02:25.202Z,1.71
2023-03-10T11:05:07.327Z,1.75
2023-03-10T11:07:36.320Z,1.84
2023-03-10T11:10:27.044Z,1.86
2023-03-10T11:13:16.304Z,1.83
2023-03-10T11:16:07.469Z,1.84
2023-03-10T11:18:52.713Z,1.85
2023-03-10T11:21:36.932Z,1.85
2023-03-10T11:24:26.739Z,1.87
2023-03-10T11:27:06.909Z,1.90
2023-03-10T11:29:55.008Z,1.97
2023-03-10T11:32:56.402Z,2.10
2023-03-10T11:35:48.471Z,2.19
2023-03-10T11:38:37.543Z,2.27
2023-03-10T11:41:14.214Z,2.42
2023-03-10T11:43:56.017Z,2.57
2023-03-10T11:46:53.799Z,2.78
2023-03-10T11:49:27.811Z,3.02
2023-03-10T11:52:14.992Z,3.07
2023-03-10T11:54:54.625Z,3.01
2023-03-10T11:57:41.260Z,2.80
2023-03-10T12:00:26.035Z,2.66
2023-03-10T12:03:06.309Z,2.57
2023-03-10T12:05:54.953Z,2.60
2023-03-10T12:08:32.873Z,2.69
2023-03-10T12:11:07.301Z,2.78
2023-03-10T12:13:50.193Z,2.84
2023-03-10T12:16:33.359Z,2.87
2023-03-10T12:19:06.752Z,2.84
2023-03-10T12:21:36.733Z,2.82
2023-03-10T12:24:27.067Z,2.76
2023-03-10T12:27:02.588Z,2.75
2023-03-10T12:29:34.747Z,2.74
2023-03-10T12:32:04.933Z,2.75
2023-03-10T12:34:35.709Z,2.80
2023-03-10T12:37:10.940Z,2.82
2023-03-10T12:39:44.320Z,2.78
2023-03-10T12:42:31.512Z,2.80
2023-03-10T12:45:18.688Z,2.81
2023-03-10T12:47:56.688Z,2.86
2023-03-10T12:50:32.459Z,2.87
2023-03-10T12:53:31.163Z,2.87
2023-03-10T12:56:21.589Z,2.84
2023-03-10T12:59:05.606Z,2.81
2023-03-10T13:01:55.160Z,2.83
2023-03-10T13:04:28.222Z,2.82
2023-03-10T13:07:04.473Z,2.81
2023-03-10T13:09:41.601Z,2.84
2023-03-10T13:12:23.000Z,2.89
2023-03-10T13:14:57.154Z,2.85
2023-03-10T13:17:29.560Z,2.83
2023-03-10T13:20:15.536Z,2.80
2023-03-10T13:22:59.442Z,2.87
2023-03-10T13:25:29.620Z,2.98
2023-03-10T13:28:12.342Z,3.10
2023-03-10T13:30:42.171Z,3.23
2023-03-10T13:33:21.917Z,3.25
2023-03-10T13:35:54.212Z,3.23
2023-03-10T13:38:24.918Z,3.28
2023-03-10T13:41:02.684Z,3.36
2023-03-10T13:43:38.644Z,3.41
2023-03-10T13:46:18.391Z,3.47
2023-03-10T13:48:49.336Z,3.56
2023-03-10T13:51:35.656Z,3.66
2023-03-10T13:54:44.013Z,3.72
2023-03-10T13:57:36.043Z,3.70
2023-03-10T14:00:11.473Z,3.69
2023-03-10T14:02:45.403Z,3.72
2023-03-10T14:05:49.928Z,3.71
2023-03-10T14:08:26.594Z,3.69
2023-03-10T14:11:24.149Z,3.67
2023-03-10T14:13:55.656Z,3.64
2023-03-10T14:16:58.594Z,3.63
2023-03-10T14:19:49.749Z,3.61
2023-03-10T14:22:41.048Z,3.61
2023-03-10T14:25:22.049Z,3.61
2023-03-10T14:28:04.759Z,3.60
2023-03-10T14:30:34.743Z,3.59
2023-03-10T14:33:12.459Z,3.62
2023-03-10T14:35:44.951Z,3.65
2023-03-10T14:38:14.409Z,3.71
2023-03-10T14:40:51.038Z,3.76
2023-03-10T14:43:28.158Z,3.82
2023-03-10T14:46:00.776Z,3.94
2023-03-10T14:48:35.774Z,4.04
2023-03-10T14:51:09.031Z,4.07
2023-03-10T14:53:42.733Z,4.09
2023-03-10T14:56:20.564Z,4.04
2023-03-10T14:58:56.386Z,3.96
2023-03-10T15:01:27.187Z,3.94
2023-03-10T15:03:58.395Z,3.91
2023-03-10T15:06:28.908Z,3.92
2023-03-10T15:09:01.948Z,3.95
2023-03-10T15:11:37.324Z,3.97
2023-03-10T15:14:18.739Z,3.91
2023-03-10T15:16:50.213Z,3.81
2023-03-10T15:19:26.903Z,3.71
2023-03-10T15:21:56.497Z,3.61
2023-03-10T15:24:26.849Z,3.50
2023-03-10T15:26:58.481Z,3.40
2023-03-10T15:29:31.835Z,3.35
2023-03-10T15:32:02.797Z,3.32
2023-03-10T15:34:35.401Z,3.27
2023-03-10T15:37:08.945Z,3.20
2023-03-10T15:39:40.264Z,3.14
2023-03-10T15:42:12.979Z,3.11
2023-03-10T15:44:42.919Z,3.13
2023-03-10T15:47:14.605Z,3.18
2023-03-10T15:49:45.493Z,3.27
2023-03-10T15:52:20.782Z,3.37
2023-03-10T15:54:52.160Z,3.44
2023-03-10T15:57:21.716Z,3.50
2023-03-10T15:59:52.316Z,3.53
2023-03-10T16:02:23.664Z,3.59
2023-03-10T16:04:52.896Z,3.62
2023-03-10T16:07:22.935Z,3.61
2023-03-10T16:09:58.840Z,3.62
2023-03-10T16:12:29.599Z,3.59
2023-03-10T16:15:03.083Z,3.50
2023-03-10T16:17:34.872Z,3.46
2023-03-10T16:20:10.528Z,3.45
2023-03-10T16:22:43.272Z,3.48
2023-03-10T16:25:15.864Z,3.51
2023-03-10T16:27:49.239Z,3.47
2023-03-10T16:30:19.778Z,3.36
2023-03-10T16:32:53.000Z,3.24
2023-03-10T16:35:29.885Z,3.22
2023-03-10T16:38:05.347Z,3.16
2023-03-10T16:40:38.364Z,3.12
2023-03-10T16:43:10.835Z,3.14
2023-03-10T16:45:41.404Z,3.16
2023-03-10T16:48:13.409Z,3.12
2023-03-10T16:50:48.731Z,3.11
2023-03-10T16:53:22.526Z,3.16
2023-03-10T16:56:03.567Z,3.22
2023-03-10T16:58:37.251Z,3.27
2023-03-10T17:01:11.867Z,3.32
2023-03-10T17:03:45.121Z,3.35
2023-03-10T17:06:21.022Z,3.37
2023-03-10T17:08:58.265Z,3.29
2023-03-10T17:11:32.682Z,3.18
2023-03-10T17:14:08.924Z,3.09
2023-03-10T17:16:43.747Z,3.05
2023-03-10T17:19:20.804Z,3.00
2023-03-10T17:21:54.446Z,2.99
2023-03-10T17:24:28.188Z,2.97
2023-03-10T17:27:03.295Z,2.96
2023-03-10T17:29:35.734Z,2.95
2023-03-10T17:32:07.005Z,2.91
2023-03-10T17:34:37.302Z,2.89
2023-03-10T17:37:11.177Z,2.89
2023-03-10T17:39:41.853Z,2.87
2023-03-10T17:42:14.809Z,2.85
2023-03-10T17:44:49.561Z,2.81
2023-03-10T17:47:24.171Z,2.77
2023-03-10T17:50:00.476Z,2.77
2023-03-10T17:52:34.899Z,2.72
2023-03-10T17:55:06.124Z,2.70
2023-03-10T17:57:39.076Z,2.69
2023-03-10T18:00:12.360Z,2.69
2023-03-10T18:02:45.511Z,2.70
2023-03-10T18:05:18.892Z,2.71
2023-03-10T18:07:55.436Z,2.74
2023-03-10T18:10:26.926Z,2.77
2023-03-10T18:12:59.025Z,2.77
2023-03-10T18:15:29.399Z,2.78
2023-03-10T18:18:03.604Z,2.83
2023-03-10T18:20:39.003Z,2.90
2023-03-10T18:23:13.632Z,3.00
2023-03-10T18:25:47.072Z,3.13
2023-03-10T18:28:19.612Z,3.17
2023-03-10T18:30:54.180Z,3.20
2023-03-10T18:33:27.686Z,3.24
2023-03-10T18:36:04.204Z,3.30
2023-03-10T18:38:34.946Z,3.34
2023-03-10T18:41:07.827Z,3.39
2023-03-10T18:43:40.291Z,3.43
2023-03-10T18:46:12.610Z,3.43
2023-03-10T18:48:44.882Z,3.38
2023-03-10T18:51:17.697Z,3.28
2023-03-10T18:53:49.198Z,3.23
2023-03-10T18:56:26.442Z,3.21
2023-03-10T18:58:58.963Z,3.12
2023-03-10T19:01:29.461Z,3.05
2023-03-10T19:04:03.533Z,3.01
2023-03-10T19:06:35.608Z,2.98
2023-03-10T19:09:09.049Z,2.96
2023-03-10T19:11:42.750Z,2.92
2023-03-10T19:14:18.964Z,2.88
2023-03-10T19:16:55.626Z,2.84
2023-03-10T19:19:30.286Z,2.81
2023-03-10T19:22:05.198Z,2.81
2023-03-10T19:24:36.915Z,2.80
2023-03-10T19:27:11.264Z,2.81
2023-03-10T19:29:42.562Z,2.80
2023-03-10T19:32:15.313Z,2.79
2023-03-10T19:34:49.155Z,2.77
2023-03-10T19:37:23.901Z,2.78
2023-03-10T19:39:59.165Z,2.81
2023-03-10T19:42:36.050Z,2.85
2023-03-10T19:45:08.612Z,2.94
2023-03-10T19:47:39.957Z,3.02
2023-03-10T19:50:14.373Z,3.10
2023-03-10T19:52:48.564Z,3.11
2023-03-10T19:55:24.168Z,3.09
2023-03-10T19:57:59.566Z,3.04
2023-03-10T20:00:37.761Z,2.98
2023-03-10T20:03:12.303Z,2.88
2023-03-10T20:05:44.537Z,2.79
2023-03-10T20:08:19.330Z,2.75
2023-03-10T20:10:55.588Z,2.74
2023-03-10T20:13:31.326Z,2.75
2023-03-10T20:16:03.269Z,2.79
2023-03-10T20:18:39.729Z,2.85
2023-03-10T20:21:12.639Z,2.93
2023-03-10T20:23:48.346Z,3.00
2023-03-10T20:26:20.472Z,3.06
2023-03-10T20:28:55.067Z,3.10
2023-03-10T20:31:29.296Z,3.12
2023-03-10T20:34:01.882Z,3.16
2023-03-10T20:36:34.267Z,3.17
2023-03-10T20:39:12.342Z,3.16
2023-03-10T20:41:45.113Z,3.13
2023-03-10T20:44:22.284Z,3.09
2023-03-10T20:46:56.653Z,3.00
2023-03-10T20:49:33.415Z,2.92
2023-03-10T20:52:05.665Z,2.88
2023-03-10T20:54:40.512Z,2.84
2023-03-10T20:57:17.498Z,2.84
2023-03-10T20:59:50.007Z,2.87
2023-03-10T21:02:27.447Z,2.92
2023-03-10T21:05:01.480Z,2.94
2023-03-10T21:07:32.389Z,2.91
2023-03-10T21:10:05.977Z,2.89
2023-03-10T21:12:36.881Z,2.87
2023-03-10T21:15:09.793Z,2.86
2023-03-10T21:17:41.395Z,2.87
2023-03-10T21:20:15.911Z,2.90
2023-03-10T21:22:47.579Z,2.93
2023-03-10T21:25:21.228Z,2.96
2023-03-10T21:27:59.256Z,3.00
2023-03-10T21:30:33.912Z,3.06
2023-03-10T21:33:04.331Z,3.12
2023-03-10T21:35:38.872Z,3.15
2023-03-10T21:38:12.020Z,3.17
2023-03-10T21:40:42.421Z,3.23
2023-03-10T21:43:14.420Z,3.29
2023-03-10T21:45:46.988Z,3.32
2023-03-10T21:48:16.953Z,3.33
2023-03-10T21:50:47.677Z,3.37
2023-03-10T21:53:18.998Z,3.41
2023-03-10T21:55:50.185Z,3.46
2023-03-10T21:58:23.750Z,3.47
2023-03-10T22:00:56.347Z,3.49
2023-03-10T22:03:25.636Z,3.44
2023-03-10T22:05:57.365Z,3.37
2023-03-10T22:08:30.422Z,3.30
2023-03-10T22:11:00.655Z,3.26
2023-03-10T22:13:33.761Z,3.26
2023-03-10T22:16:05.316Z,3.23
2023-03-10T22:18:39.015Z,3.16
2023-03-10T22:21:09.273Z,3.15
2023-03-10T22:23:45.175Z,3.13
2023-03-10T22:26:17.538Z,3.01
2023-03-10T22:28:48.442Z,2.95
2023-03-10T22:31:19.598Z,2.95
2023-03-10T22:34:21.977Z,3.04
2023-03-10T22:36:44.475Z,3.16
2023-03-10T22:39:18.088Z,3.27
2023-03-10T22:41:51.193Z,3.36
2023-03-10T22:44:23.359Z,3.44
2023-03-10T22:46:57.057Z,3.52
2023-03-10T22:49:28.731Z,3.59
2023-03-10T22:52:09.906Z,3.64
2023-03-10T22:55:06.821Z,3.66
2023-03-10T22:57:54.863Z,3.62
2023-03-10T23:00:41.343Z,3.55
2023-03-10T23:03:41.832Z,3.55
2023-03-10T23:06:23.627Z,3.55
2023-03-10T23:08:57.328Z,3.60
2023-03-10T23:11:26.867Z,3.64
2023-03-10T23:14:08.549Z,3.70
2023-03-10T23:16:38.851Z,3.79
2023-03-10T23:19:09.013Z,3.83
2023-03-10T23:21:42.491Z,3.94
2023-03-10T23:24:14.323Z,4.01
2023-03-10T23:26:44.592Z,4.09
2023-03-10T23:29:17.798Z,4.16
2023-03-10T23:32:23.743Z,4.24
2023-03-10T23:35:09.217Z,4.32
2023-03-10T23:37:39.633Z,4.43
2023-03-10T23:40:14.650Z,4.53
2023-03-10T23:42:45.382Z,4.62
2023-03-10T23:45:20.529Z,4.71
2023-03-10T23:47:52.230Z,4.78
2023-03-10T23:50:30.051Z,4.87
2023-03-10T23:53:00.850Z,4.94
2023-03-10T23:55:36.163Z,4.99
2023-03-10T23:58:06.769Z,5.03
